createdAt,value
2019-01-30T02:24:55.189Z,3.05
2019-01-30T02:27:25.876Z,3.10
2019-01-30T02:29:56.734Z,2.75
2019-01-30T02:32:25.993Z,3.20
2019-01-30T02:34:55.396Z,3.00
2019-01-30T02:37:25.687Z,2.30
2019-01-30T02:43:18.693Z,2.80
2019-01-30T02:48:17.840Z,2.90
2019-01-30T02:50:47.889Z,3.40
2019-01-30T02:55:47.123Z,3.10
2019-01-30T02:58:20.847Z,2.60
2019-01-30T03:00:58.806Z,2.20
2019-01-30T03:03:24.867Z,2.50
2019-01-30T03:08:23.063Z,2.35
2019-01-30T03:10:52.674Z,2.30
2019-01-30T03:13:22.780Z,2.10
2019-01-30T03:15:52.836Z,2.70
2019-01-30T03:18:22.987Z,2.90
2019-01-30T03:20:53.804Z,2.60
2019-01-30T03:23:24.817Z,2.90
2019-01-30T03:25:54.750Z,3.10
2019-01-30T03:28:25.958Z,2.80
2019-01-30T03:30:55.842Z,2.60
2019-01-30T03:33:25.831Z,2.00
2019-01-30T03:35:55.884Z,1.95
2019-01-30T03:38:26.869Z,2.20
2019-01-30T03:40:56.867Z,2.05
2019-01-30T03:43:27.905Z,2.10
2019-01-30T03:45:57.891Z,2.20
2019-01-30T03:48:27.115Z,2.00
2019-01-30T03:50:56.043Z,2.90
2019-01-30T03:58:22.799Z,2.90
2019-01-30T04:00:52.782Z,2.80
2019-01-30T04:03:22.783Z,2.90
2019-01-30T04:08:22.122Z,2.30
2019-01-30T04:13:22.875Z,2.20
2019-01-30T04:15:52.922Z,2.15
2019-01-30T04:18:22.858Z,2.00
2019-01-30T04:20:52.818Z,2.30
2019-01-30T04:23:22.814Z,1.90
2019-01-30T04:25:52.858Z,2.90
2019-01-30T04:28:24.673Z,3.00
2019-01-30T04:35:51.874Z,2.75
2019-01-30T04:38:21.873Z,2.70
2019-01-30T04:40:49.637Z,2.60
2019-01-30T04:43:18.429Z,2.55
2019-01-30T04:45:47.159Z,2.00
2019-01-30T04:48:17.460Z,1.97
2019-01-30T04:50:47.077Z,2.30
2019-01-30T04:53:17.785Z,2.00
2019-01-30T04:55:47.381Z,2.10
2019-01-30T04:58:15.992Z,2.08
2019-01-30T05:00:45.220Z,2.50
2019-01-30T05:03:14.395Z,2.95
2019-01-30T05:05:42.374Z,2.73
2019-01-30T05:08:10.426Z,2.80
2019-01-30T05:10:39.093Z,3.40
2019-01-30T05:13:06.956Z,2.80
2019-01-30T05:15:35.121Z,2.80
2019-01-30T05:18:03.149Z,2.60
2019-01-30T05:22:59.564Z,2.10
2019-01-30T05:25:27.051Z,2.40
2019-01-30T05:27:55.238Z,2.17
2019-01-30T05:30:30.781Z,2.20
2019-01-30T05:33:01.900Z,1.62
2019-01-30T05:35:32.860Z,1.90
2019-01-30T05:38:01.941Z,2.42
2019-01-30T05:40:31.758Z,2.45
2019-01-30T05:43:03.075Z,3.10
2019-01-30T05:45:32.782Z,3.20
2019-01-30T05:48:03.916Z,2.90
2019-01-30T05:50:32.877Z,2.40
2019-01-30T05:55:31.926Z,2.20
2019-01-30T05:58:06.846Z,2.40
2019-01-30T06:00:45.901Z,3.40
2019-01-30T06:03:16.889Z,4.10
2019-01-30T06:08:17.164Z,4.30
2019-01-30T06:10:47.362Z,5.07
2019-01-30T06:15:48.868Z,4.70
2019-01-30T06:18:18.820Z,5.30
2019-01-30T06:20:47.865Z,5.00
2019-01-30T06:23:19.420Z,4.80
2019-01-30T06:25:49.912Z,4.60
2019-01-30T06:28:40.790Z,3.70
2019-01-30T06:31:09.783Z,3.70
2019-01-30T06:33:40.631Z,3.50
2019-01-30T06:36:09.756Z,3.30
2019-01-30T06:43:37.648Z,3.30
2019-01-30T06:48:47.738Z,3.50
2019-01-30T06:51:17.073Z,3.60
2019-01-30T06:57:34.662Z,3.40
2019-01-30T07:00:11.810Z,3.20
2019-01-30T07:02:40.358Z,3.50
2019-01-30T07:05:10.429Z,3.55
2019-01-30T07:07:38.799Z,3.60
2019-01-30T07:10:12.712Z,4.00
2019-01-30T07:12:42.747Z,3.60
2019-01-30T07:15:12.762Z,3.25
2019-01-30T07:17:41.662Z,2.83
2019-01-30T07:20:31.320Z,3.30
2019-01-30T07:23:00.735Z,20.43
2019-01-30T07:25:29.737Z,12.10
2019-01-30T07:27:59.346Z,9.63
2019-01-30T07:30:34.634Z,8.15
2019-01-30T07:33:02.753Z,7.53
2019-01-30T07:35:32.910Z,6.50
2019-01-30T07:38:01.726Z,5.90
2019-01-30T07:43:00.801Z,4.80
2019-01-30T07:45:29.460Z,5.35
2019-01-30T07:47:59.610Z,5.70
2019-01-30T07:53:13.869Z,4.40
2019-01-30T07:58:22.767Z,5.60
2019-01-30T08:00:51.992Z,5.25
2019-01-30T08:03:21.979Z,5.35
2019-01-30T08:05:50.799Z,4.90
2019-01-30T08:08:21.629Z,4.30
2019-01-30T08:10:50.604Z,4.70
2019-01-30T08:15:50.377Z,4.75
2019-01-30T08:18:19.387Z,4.20
2019-01-30T08:23:18.208Z,3.40
2019-01-30T08:25:47.052Z,3.90
2019-01-30T08:28:17.753Z,3.50
2019-01-30T08:30:47.873Z,4.30
2019-01-30T08:41:17.402Z,3.40
2019-01-30T08:48:42.071Z,3.25
2019-01-30T08:58:16.021Z,3.50
2019-01-30T09:00:44.955Z,3.77
2019-01-30T09:03:15.665Z,3.40
2019-01-30T09:05:44.119Z,3.73
2019-01-30T09:08:13.910Z,3.60
2019-01-30T09:10:42.807Z,3.63
2019-01-30T09:13:11.397Z,4.03
2019-01-30T09:18:10.294Z,3.65
2019-01-30T09:23:08.547Z,3.00
2019-01-30T09:25:36.734Z,3.00
2019-01-30T09:28:08.419Z,2.90
2019-01-30T09:30:38.675Z,2.80
2019-01-30T09:33:10.373Z,3.00
2019-01-30T09:50:26.346Z,3.20
2019-01-30T09:55:23.657Z,2.80
2019-01-30T09:57:53.009Z,3.35
2019-01-30T10:00:36.308Z,2.90
2019-01-30T10:03:05.391Z,2.77
2019-01-30T10:10:44.148Z,2.60
2019-01-30T10:13:13.677Z,2.50
2019-01-30T10:15:43.904Z,2.90
2019-01-30T10:18:16.368Z,3.00
2019-01-30T10:20:47.895Z,2.40
2019-01-30T10:23:17.785Z,2.93
2019-01-30T10:28:16.587Z,2.30
2019-01-30T10:30:45.761Z,2.50
2019-01-30T10:35:45.765Z,2.10
2019-01-30T10:38:15.768Z,2.25
2019-01-30T10:57:45.691Z,2.13
2019-01-30T11:00:23.913Z,2.00
2019-01-30T11:05:21.867Z,2.15
2019-01-30T11:07:51.606Z,2.00
2019-01-30T11:10:21.782Z,2.25
2019-01-30T11:12:52.173Z,2.10
2019-01-30T11:15:22.840Z,2.20
2019-01-30T11:20:21.937Z,2.00
2019-01-30T11:22:53.596Z,1.60
2019-01-30T11:32:55.501Z,1.50
2019-01-30T11:35:25.241Z,1.70
2019-01-30T11:37:53.776Z,1.80
2019-01-30T11:40:22.811Z,2.00
2019-01-30T11:42:52.372Z,1.70
2019-01-30T11:50:27.742Z,1.80
2019-01-30T12:08:10.706Z,1.65
2019-01-30T12:10:39.021Z,1.45
2019-01-30T12:13:09.728Z,1.60
2019-01-30T12:18:09.038Z,1.43
2019-01-30T12:20:38.100Z,1.50
2019-01-30T12:25:35.057Z,1.40
2019-01-30T12:28:04.828Z,1.50
2019-01-30T12:33:01.676Z,1.80
2019-01-30T12:35:31.026Z,1.20
2019-01-30T12:38:00.831Z,1.60
2019-01-30T12:40:30.761Z,1.70
2019-01-30T12:45:33.294Z,1.60
2019-01-30T12:48:02.752Z,1.50
2019-01-30T12:50:32.030Z,1.20
2019-01-30T12:53:01.783Z,1.80
2019-01-30T12:55:32.312Z,1.60
2019-01-30T12:58:00.764Z,1.60
2019-01-30T13:02:58.811Z,1.80
2019-01-30T13:05:27.578Z,1.40
2019-01-30T13:07:57.580Z,1.60
2019-01-30T13:10:26.352Z,1.50
2019-01-30T13:12:55.762Z,1.40
2019-01-30T13:18:40.881Z,1.30
2019-01-30T13:23:39.643Z,1.30
2019-01-30T13:31:08.839Z,1.25
2019-01-30T13:33:40.148Z,1.30
2019-01-30T13:36:08.714Z,1.10
2019-01-30T13:38:38.778Z,1.27
2019-01-30T13:46:07.788Z,1.10
2019-01-30T14:01:20.726Z,1.20
2019-01-30T14:18:10.731Z,1.30
2019-01-30T14:20:39.844Z,1.20
2019-01-30T14:23:09.022Z,1.20
2019-01-30T14:25:39.544Z,1.30
2019-01-30T14:39:04.075Z,1.20
2019-01-30T14:43:10.779Z,1.00
2019-01-30T14:45:39.774Z,1.43
2019-01-30T14:48:10.720Z,1.10
2019-01-30T14:50:39.721Z,1.30
2019-01-30T14:53:10.112Z,1.30
2019-01-30T14:55:40.062Z,0.90
2019-01-30T14:58:10.896Z,1.10
2019-01-30T15:03:18.585Z,1.10
2019-01-30T15:05:47.693Z,1.15
2019-01-30T15:08:17.031Z,1.20
2019-01-30T15:10:47.917Z,0.87
2019-01-30T15:13:18.410Z,1.20
2019-01-30T15:20:49.355Z,1.10
2019-01-30T15:25:22.509Z,1.07
2019-01-30T15:27:52.724Z,1.00
2019-01-30T15:30:57.098Z,0.90
2019-01-30T15:33:25.922Z,0.90
2019-01-30T15:36:16.701Z,0.80
2019-01-30T15:38:46.015Z,1.10
2019-01-30T15:41:15.362Z,1.20
2019-01-30T15:43:45.056Z,1.50
2019-01-30T15:46:16.304Z,2.00
2019-01-30T15:48:47.843Z,2.50
2019-01-30T15:51:19.713Z,1.80
2019-01-30T15:57:08.668Z,2.00
2019-01-30T15:59:37.520Z,1.70
2019-01-30T16:02:07.602Z,1.90
2019-01-30T16:04:38.939Z,2.15
2019-01-30T16:07:08.314Z,2.50
2019-01-30T16:09:38.071Z,2.30
2019-01-30T16:12:08.518Z,2.40
2019-01-30T16:14:40.869Z,1.50
2019-01-30T16:17:12.613Z,1.90
2019-01-30T16:19:42.781Z,1.35
2019-01-30T16:22:14.324Z,1.80
2019-01-30T16:24:47.001Z,1.60
2019-01-30T16:27:17.767Z,1.80
2019-01-30T16:29:50.587Z,1.80
2019-01-30T16:32:23.040Z,1.60
2019-01-30T16:37:21.104Z,1.60
2019-01-30T16:39:51.760Z,1.80
2019-01-30T16:44:52.651Z,2.00
2019-01-30T16:47:24.204Z,1.93
2019-01-30T16:52:21.710Z,1.60
2019-01-30T16:57:22.866Z,1.85
2019-01-30T16:59:52.637Z,2.00
2019-01-30T17:02:24.581Z,1.80
2019-01-30T17:04:56.829Z,1.80
2019-01-30T17:07:28.721Z,1.75
2019-01-30T17:17:36.732Z,1.80
2019-01-30T17:20:12.017Z,1.80
2019-01-30T17:25:15.915Z,2.00
2019-01-30T17:31:00.694Z,1.70
2019-01-30T17:41:29.404Z,1.95
2019-01-30T17:46:35.815Z,1.70
2019-01-30T17:49:06.768Z,1.80
2019-01-30T17:54:10.333Z,1.70
2019-01-30T17:56:42.190Z,2.10
2019-01-30T18:01:45.787Z,1.50
2019-01-30T18:06:47.820Z,1.60
2019-01-30T18:11:52.911Z,1.75
2019-01-30T18:16:54.630Z,1.50
2019-01-30T18:19:26.597Z,1.80
2019-01-30T18:21:59.062Z,1.47
2019-01-30T18:24:31.942Z,1.47
2019-01-30T18:30:19.885Z,1.23
2019-01-30T18:32:52.953Z,1.35
2019-01-30T18:35:28.706Z,1.40
2019-01-30T18:38:06.844Z,1.63
2019-01-30T18:40:44.948Z,1.70
2019-01-30T18:43:19.861Z,1.60
2019-01-30T18:45:54.669Z,1.60
2019-01-30T18:48:28.687Z,1.75
2019-01-30T18:51:03.655Z,1.40
2019-01-30T18:53:35.662Z,1.40
2019-01-30T18:56:07.724Z,2.20
2019-01-30T18:58:41.020Z,1.70
2019-01-30T19:01:13.701Z,2.63
2019-01-30T19:06:19.001Z,3.60
2019-01-30T19:08:54.735Z,4.87
2019-01-30T19:11:28.634Z,5.30
2019-01-30T19:14:01.201Z,7.15
2019-01-30T19:16:33.480Z,7.50
2019-01-30T19:19:07.684Z,7.85
2019-01-30T19:21:44.722Z,7.70
2019-01-30T19:24:19.767Z,7.80
2019-01-30T19:26:52.945Z,8.30
2019-01-30T19:29:26.730Z,8.50
2019-01-30T19:32:01.714Z,8.20
2019-01-30T19:34:37.481Z,9.10
2019-01-30T19:37:14.676Z,8.70
2019-01-30T19:39:48.757Z,9.27
2019-01-30T19:42:25.670Z,9.47
2019-01-30T19:49:19.700Z,8.57
2019-01-30T19:51:54.142Z,10.07
2019-01-30T19:54:30.638Z,8.60
2019-01-30T19:57:05.899Z,7.03
2019-01-30T19:59:41.455Z,7.50
2019-01-30T20:02:16.938Z,7.00
2019-01-30T20:04:52.602Z,7.90
2019-01-30T20:10:02.740Z,8.30
2019-01-30T20:12:37.788Z,7.20
2019-01-30T20:15:16.257Z,7.80
2019-01-30T20:20:23.606Z,7.30
2019-01-30T20:27:10.458Z,8.00
2019-01-30T20:29:47.510Z,7.50
2019-01-30T20:32:23.251Z,7.70
2019-01-30T20:34:57.291Z,6.77
2019-01-30T20:37:34.357Z,7.10
2019-01-30T20:40:11.469Z,7.20
2019-01-30T20:45:19.030Z,6.70
2019-01-30T20:47:53.256Z,7.45
2019-01-30T20:50:29.998Z,6.95
2019-01-30T20:53:03.875Z,6.40
2019-01-30T20:55:38.108Z,6.17
2019-01-30T20:58:10.816Z,6.03
2019-01-30T21:01:33.580Z,6.30
2019-01-30T21:04:06.663Z,5.87
2019-01-30T21:06:39.762Z,6.10
2019-01-30T21:09:13.684Z,6.45
2019-01-30T21:11:46.602Z,6.30
2019-01-30T21:14:19.732Z,6.30
2019-01-30T21:16:56.774Z,5.80
2019-01-30T21:19:29.458Z,6.10
2019-01-30T21:22:05.521Z,6.25
2019-01-30T21:24:38.453Z,5.05
2019-01-30T21:27:12.153Z,5.50
2019-01-30T21:29:45.944Z,5.03
2019-01-30T21:32:18.213Z,6.05
2019-01-30T21:34:50.485Z,5.20
2019-01-30T21:37:22.260Z,5.65
2019-01-30T21:42:23.514Z,4.50
2019-01-30T21:44:55.051Z,5.00
2019-01-30T21:47:28.628Z,5.35
2019-01-30T21:50:01.497Z,5.70
2019-01-30T21:52:33.476Z,5.20
2019-01-30T21:55:05.750Z,5.35
2019-01-30T22:00:04.026Z,4.78
2019-01-30T22:02:36.117Z,4.67
2019-01-30T22:05:06.635Z,4.60
2019-01-30T22:07:37.501Z,4.60
2019-01-30T22:10:10.449Z,4.60
2019-01-30T22:12:41.445Z,4.15
2019-01-30T22:15:12.645Z,4.15
2019-01-30T22:17:44.273Z,4.70
2019-01-30T22:20:17.549Z,4.30
2019-01-30T22:22:47.431Z,3.90
2019-01-30T22:27:48.084Z,3.50
2019-01-30T22:30:29.447Z,4.35
2019-01-30T22:32:58.457Z,4.15
2019-01-30T22:35:27.816Z,4.00
2019-01-30T22:37:56.966Z,3.70
2019-01-30T22:40:27.233Z,3.80
2019-01-30T22:42:56.180Z,3.70
2019-01-30T22:45:26.090Z,3.75
2019-01-30T22:47:54.406Z,4.05
2019-01-30T22:50:25.430Z,4.50
2019-01-30T22:52:53.559Z,3.90
2019-01-30T22:55:23.569Z,3.70
2019-01-30T22:57:51.855Z,3.80
2019-01-30T23:01:23.761Z,3.90
2019-01-30T23:04:52.254Z,3.70
2019-01-30T23:08:43.102Z,4.10
2019-01-30T23:12:17.251Z,3.90
2019-01-30T23:15:03.367Z,3.80
2019-01-30T23:18:37.568Z,3.83
2019-01-30T23:21:15.531Z,4.10
2019-01-30T23:24:21.390Z,3.83
2019-01-30T23:27:08.475Z,3.90
2019-01-30T23:30:29.999Z,3.60
2019-01-30T23:33:55.753Z,3.97
2019-01-30T23:37:06.973Z,3.30
2019-01-30T23:40:07.240Z,3.85
2019-01-30T23:43:33.373Z,3.90
2019-01-30T23:46:38.471Z,3.20
2019-01-30T23:50:19.122Z,3.80
2019-01-30T23:53:35.449Z,3.00
2019-01-30T23:56:43.815Z,3.30
